sensor_id;sensor_type;location;lat;lon;timestamp;P1;durP1;ratioP1;P2;durP2;ratioP2
5295;SDS011;2670;42.720;23.336;2024-02-14T00:01:37;9.43;;;5.97;;
5295;SDS011;2670;42.720;23.336;2024-02-14T00:04:04;15.20;;;6.27;;
5295;SDS011;2670;42.720;23.336;2024-02-14T00:06:36;6.90;;;5.40;;
5295;SDS011;2670;42.720;23.336;2024-02-14T00:09:02;8.50;;;5.90;;
5295;SDS011;2670;42.720;23.336;2024-02-14T00:11:29;9.20;;;5.50;;
5295;SDS011;2670;42.720;23.336;2024-02-14T00:13:55;7.50;;;4.93;;
5295;SDS011;2670;42.720;23.336;2024-02-14T00:16:22;8.73;;;5.90;;
5295;SDS011;2670;42.720;23.336;2024-02-14T00:18:48;8.23;;;5.97;;
5295;SDS011;2670;42.720;23.336;2024-02-14T00:21:16;7.43;;;6.00;;
5295;SDS011;2670;42.720;23.336;2024-02-14T00:23:43;8.43;;;6.10;;
5295;SDS011;2670;42.720;23.336;2024-02-14T00:26:10;7.80;;;5.67;;
5295;SDS011;2670;42.720;23.336;2024-02-14T00:28:36;13.10;;;6.20;;
5295;SDS011;2670;42.720;23.336;2024-02-14T00:31:03;9.37;;;6.40;;
5295;SDS011;2670;42.720;23.336;2024-02-14T00:33:29;8.53;;;5.30;;
5295;SDS011;2670;42.720;23.336;2024-02-14T00:35:56;9.90;;;6.33;;
5295;SDS011;2670;42.720;23.336;2024-02-14T00:38:22;4.27;;;3.77;;
5295;SDS011;2670;42.720;23.336;2024-02-14T00:40:50;8.50;;;6.13;;
5295;SDS011;2670;42.720;23.336;2024-02-14T00:43:16;7.43;;;4.67;;
5295;SDS011;2670;42.720;23.336;2024-02-14T00:45:43;10.57;;;6.87;;
5295;SDS011;2670;42.720;23.336;2024-02-14T00:48:09;9.60;;;6.23;;
5295;SDS011;2670;42.720;23.336;2024-02-14T00:50:36;11.97;;;6.63;;
5295;SDS011;2670;42.720;23.336;2024-02-14T00:53:02;9.63;;;6.20;;
5295;SDS011;2670;42.720;23.336;2024-02-14T00:55:29;8.70;;;6.00;;
5295;SDS011;2670;42.720;23.336;2024-02-14T00:57:57;7.90;;;6.13;;
5295;SDS011;2670;42.720;23.336;2024-02-14T01:00:23;8.27;;;6.10;;
5295;SDS011;2670;42.720;23.336;2024-02-14T01:02:50;9.77;;;6.43;;
5295;SDS011;2670;42.720;23.336;2024-02-14T01:05:17;9.10;;;6.10;;
5295;SDS011;2670;42.720;23.336;2024-02-14T01:07:43;7.03;;;4.67;;
5295;SDS011;2670;42.720;23.336;2024-02-14T01:10:11;10.00;;;6.07;;
5295;SDS011;2670;42.720;23.336;2024-02-14T01:12:37;9.87;;;6.57;;
5295;SDS011;2670;42.720;23.336;2024-02-14T01:15:07;9.00;;;6.20;;
5295;SDS011;2670;42.720;23.336;2024-02-14T01:17:33;8.70;;;5.63;;
5295;SDS011;2670;42.720;23.336;2024-02-14T01:20:01;12.30;;;6.43;;
5295;SDS011;2670;42.720;23.336;2024-02-14T01:22:27;8.60;;;5.80;;
5295;SDS011;2670;42.720;23.336;2024-02-14T01:24:54;11.33;;;6.10;;
5295;SDS011;2670;42.720;23.336;2024-02-14T01:27:20;16.90;;;7.23;;
5295;SDS011;2670;42.720;23.336;2024-02-14T01:29:47;10.60;;;7.20;;
5295;SDS011;2670;42.720;23.336;2024-02-14T01:32:15;11.03;;;7.30;;
5295;SDS011;2670;42.720;23.336;2024-02-14T01:34:42;10.47;;;7.03;;
5295;SDS011;2670;42.720;23.336;2024-02-14T01:37:08;8.40;;;6.17;;
5295;SDS011;2670;42.720;23.336;2024-02-14T01:39:35;11.33;;;7.00;;
5295;SDS011;2670;42.720;23.336;2024-02-14T01:42:02;9.87;;;7.23;;
5295;SDS011;2670;42.720;23.336;2024-02-14T01:44:31;12.03;;;7.63;;
5295;SDS011;2670;42.720;23.336;2024-02-14T01:46:58;11.23;;;6.50;;
5295;SDS011;2670;42.720;23.336;2024-02-14T01:49:26;8.70;;;6.90;;
5295;SDS011;2670;42.720;23.336;2024-02-14T01:51:53;12.83;;;7.80;;
5295;SDS011;2670;42.720;23.336;2024-02-14T01:54:21;11.77;;;7.50;;
5295;SDS011;2670;42.720;23.336;2024-02-14T01:56:47;16.80;;;7.97;;
5295;SDS011;2670;42.720;23.336;2024-02-14T01:59:14;14.47;;;8.30;;
5295;SDS011;2670;42.720;23.336;2024-02-14T02:01:42;14.07;;;8.43;;
5295;SDS011;2670;42.720;23.336;2024-02-14T02:04:08;13.90;;;7.43;;
5295;SDS011;2670;42.720;23.336;2024-02-14T02:06:37;14.80;;;8.30;;
5295;SDS011;2670;42.720;23.336;2024-02-14T02:09:03;12.80;;;8.67;;
5295;SDS011;2670;42.720;23.336;2024-02-14T02:11:30;10.43;;;7.23;;
5295;SDS011;2670;42.720;23.336;2024-02-14T02:13:56;9.63;;;6.97;;
5295;SDS011;2670;42.720;23.336;2024-02-14T02:16:23;10.30;;;7.60;;
5295;SDS011;2670;42.720;23.336;2024-02-14T02:18:49;10.40;;;7.77;;
5295;SDS011;2670;42.720;23.336;2024-02-14T02:21:16;10.17;;;7.90;;
5295;SDS011;2670;42.720;23.336;2024-02-14T02:23:46;10.33;;;7.10;;
5295;SDS011;2670;42.720;23.336;2024-02-14T02:26:13;18.90;;;8.60;;
5295;SDS011;2670;42.720;23.336;2024-02-14T02:28:39;13.67;;;8.43;;
5295;SDS011;2670;42.720;23.336;2024-02-14T02:31:07;13.30;;;9.13;;
5295;SDS011;2670;42.720;23.336;2024-02-14T02:33:34;12.80;;;7.47;;
5295;SDS011;2670;42.720;23.336;2024-02-14T02:36:00;11.83;;;7.70;;
5295;SDS011;2670;42.720;23.336;2024-02-14T02:38:27;11.33;;;7.93;;
5295;SDS011;2670;42.720;23.336;2024-02-14T02:40:54;11.30;;;8.40;;
5295;SDS011;2670;42.720;23.336;2024-02-14T02:43:21;11.23;;;7.97;;
5295;SDS011;2670;42.720;23.336;2024-02-14T02:45:47;12.90;;;8.50;;
5295;SDS011;2670;42.720;23.336;2024-02-14T02:48:14;15.03;;;8.20;;
5295;SDS011;2670;42.720;23.336;2024-02-14T02:50:39;10.47;;;7.83;;
5295;SDS011;2670;42.720;23.336;2024-02-14T02:53:06;11.43;;;8.20;;
5295;SDS011;2670;42.720;23.336;2024-02-14T02:55:33;10.20;;;7.73;;
5295;SDS011;2670;42.720;23.336;2024-02-14T02:58:03;16.03;;;8.07;;
5295;SDS011;2670;42.720;23.336;2024-02-14T03:00:30;12.23;;;7.57;;
5295;SDS011;2670;42.720;23.336;2024-02-14T03:02:57;13.50;;;8.57;;
5295;SDS011;2670;42.720;23.336;2024-02-14T03:05:23;19.83;;;8.30;;
5295;SDS011;2670;42.720;23.336;2024-02-14T03:07:50;14.70;;;8.73;;
5295;SDS011;2670;42.720;23.336;2024-02-14T03:10:18;14.90;;;8.30;;
5295;SDS011;2670;42.720;23.336;2024-02-14T03:12:44;13.93;;;9.20;;
5295;SDS011;2670;42.720;23.336;2024-02-14T03:15:13;12.63;;;8.57;;
5295;SDS011;2670;42.720;23.336;2024-02-14T03:17:40;12.87;;;7.97;;
5295;SDS011;2670;42.720;23.336;2024-02-14T03:20:07;11.60;;;7.43;;
5295;SDS011;2670;42.720;23.336;2024-02-14T03:22:37;13.40;;;8.57;;
5295;SDS011;2670;42.720;23.336;2024-02-14T03:25:07;14.27;;;8.47;;
5295;SDS011;2670;42.720;23.336;2024-02-14T03:27:34;13.60;;;8.60;;
5295;SDS011;2670;42.720;23.336;2024-02-14T03:30:02;13.47;;;9.40;;
5295;SDS011;2670;42.720;23.336;2024-02-14T03:32:29;14.10;;;9.67;;
5295;SDS011;2670;42.720;23.336;2024-02-14T03:34:56;15.57;;;9.27;;
5295;SDS011;2670;42.720;23.336;2024-02-14T03:37:23;15.07;;;8.90;;
5295;SDS011;2670;42.720;23.336;2024-02-14T03:39:49;15.40;;;9.27;;
5295;SDS011;2670;42.720;23.336;2024-02-14T03:42:16;14.30;;;9.33;;
5295;SDS011;2670;42.720;23.336;2024-02-14T03:44:43;12.90;;;8.87;;
5295;SDS011;2670;42.720;23.336;2024-02-14T03:47:10;12.77;;;9.07;;
5295;SDS011;2670;42.720;23.336;2024-02-14T03:49:39;26.90;;;15.60;;
5295;SDS011;2670;42.720;23.336;2024-02-14T03:52:06;14.17;;;9.00;;
5295;SDS011;2670;42.720;23.336;2024-02-14T03:54:35;13.37;;;8.57;;
5295;SDS011;2670;42.720;23.336;2024-02-14T03:57:01;14.67;;;9.73;;
5295;SDS011;2670;42.720;23.336;2024-02-14T03:59:29;17.33;;;11.10;;
5295;SDS011;2670;42.720;23.336;2024-02-14T04:01:55;15.23;;;9.90;;
5295;SDS011;2670;42.720;23.336;2024-02-14T04:04:23;9.70;;;6.87;;
5295;SDS011;2670;42.720;23.336;2024-02-14T04:06:51;15.97;;;9.67;;
5295;SDS011;2670;42.720;23.336;2024-02-14T04:09:17;16.73;;;10.90;;
5295;SDS011;2670;42.720;23.336;2024-02-14T04:11:44;14.70;;;10.60;;
5295;SDS011;2670;42.720;23.336;2024-02-14T04:14:10;17.00;;;11.77;;
5295;SDS011;2670;42.720;23.336;2024-02-14T04:16:37;15.07;;;9.97;;
5295;SDS011;2670;42.720;23.336;2024-02-14T04:19:03;16.70;;;11.27;;
5295;SDS011;2670;42.720;23.336;2024-02-14T04:21:30;16.03;;;9.60;;
5295;SDS011;2670;42.720;23.336;2024-02-14T04:23:59;18.87;;;9.50;;
5295;SDS011;2670;42.720;23.336;2024-02-14T04:26:25;20.43;;;10.23;;
5295;SDS011;2670;42.720;23.336;2024-02-14T04:28:52;13.10;;;9.10;;
5295;SDS011;2670;42.720;23.336;2024-02-14T04:31:18;15.47;;;10.50;;
5295;SDS011;2670;42.720;23.336;2024-02-14T04:33:45;18.27;;;10.93;;
5295;SDS011;2670;42.720;23.336;2024-02-14T04:36:15;18.53;;;10.40;;
5295;SDS011;2670;42.720;23.336;2024-02-14T04:38:42;16.73;;;10.63;;
5295;SDS011;2670;42.720;23.336;2024-02-14T04:41:10;16.30;;;10.10;;
5295;SDS011;2670;42.720;23.336;2024-02-14T04:43:36;16.60;;;10.30;;
5295;SDS011;2670;42.720;23.336;2024-02-14T04:46:03;12.57;;;8.93;;
5295;SDS011;2670;42.720;23.336;2024-02-14T04:48:32;16.30;;;11.20;;
5295;SDS011;2670;42.720;23.336;2024-02-14T04:50:58;15.60;;;10.03;;
5295;SDS011;2670;42.720;23.336;2024-02-14T04:53:24;14.13;;;9.83;;
5295;SDS011;2670;42.720;23.336;2024-02-14T04:55:51;19.83;;;14.43;;
5295;SDS011;2670;42.720;23.336;2024-02-14T04:58:20;18.33;;;11.60;;
5295;SDS011;2670;42.720;23.336;2024-02-14T05:00:46;19.03;;;12.77;;
5295;SDS011;2670;42.720;23.336;2024-02-14T05:03:12;16.30;;;11.10;;
5295;SDS011;2670;42.720;23.336;2024-02-14T05:05:39;17.40;;;11.80;;
5295;SDS011;2670;42.720;23.336;2024-02-14T05:08:06;17.67;;;12.53;;
5295;SDS011;2670;42.720;23.336;2024-02-14T05:10:32;19.80;;;12.10;;
5295;SDS011;2670;42.720;23.336;2024-02-14T05:12:59;18.30;;;12.80;;
5295;SDS011;2670;42.720;23.336;2024-02-14T05:15:27;16.70;;;11.43;;
5295;SDS011;2670;42.720;23.336;2024-02-14T05:17:54;19.80;;;11.70;;
5295;SDS011;2670;42.720;23.336;2024-02-14T05:20:21;20.60;;;12.60;;
5295;SDS011;2670;42.720;23.336;2024-02-14T05:22:48;17.90;;;11.30;;
5295;SDS011;2670;42.720;23.336;2024-02-14T05:25:14;17.07;;;11.23;;
5295;SDS011;2670;42.720;23.336;2024-02-14T05:27:41;12.17;;;8.13;;
5295;SDS011;2670;42.720;23.336;2024-02-14T05:30:07;19.53;;;12.40;;
5295;SDS011;2670;42.720;23.336;2024-02-14T05:32:35;17.10;;;11.93;;
5295;SDS011;2670;42.720;23.336;2024-02-14T05:35:02;20.73;;;12.53;;
5295;SDS011;2670;42.720;23.336;2024-02-14T05:37:31;17.43;;;11.53;;
5295;SDS011;2670;42.720;23.336;2024-02-14T05:39:57;24.10;;;17.10;;
5295;SDS011;2670;42.720;23.336;2024-02-14T05:42:24;18.20;;;11.73;;
5295;SDS011;2670;42.720;23.336;2024-02-14T05:44:50;18.93;;;12.70;;
5295;SDS011;2670;42.720;23.336;2024-02-14T05:47:18;18.70;;;12.20;;
5295;SDS011;2670;42.720;23.336;2024-02-14T05:49:45;17.80;;;12.67;;
5295;SDS011;2670;42.720;23.336;2024-02-14T05:52:12;17.17;;;11.33;;
5295;SDS011;2670;42.720;23.336;2024-02-14T05:54:40;16.87;;;11.23;;
5295;SDS011;2670;42.720;23.336;2024-02-14T05:57:07;16.20;;;9.80;;
5295;SDS011;2670;42.720;23.336;2024-02-14T05:59:34;19.43;;;12.83;;
5295;SDS011;2670;42.720;23.336;2024-02-14T06:02:00;20.20;;;10.87;;
5295;SDS011;2670;42.720;23.336;2024-02-14T06:04:28;17.53;;;12.30;;
5295;SDS011;2670;42.720;23.336;2024-02-14T06:06:55;23.13;;;14.80;;
5295;SDS011;2670;42.720;23.336;2024-02-14T06:09:22;21.93;;;13.97;;
5295;SDS011;2670;42.720;23.336;2024-02-14T06:11:49;17.30;;;11.20;;
5295;SDS011;2670;42.720;23.336;2024-02-14T06:14:16;21.87;;;12.83;;
5295;SDS011;2670;42.720;23.336;2024-02-14T06:16:43;15.33;;;10.73;;
5295;SDS011;2670;42.720;23.336;2024-02-14T06:19:10;26.33;;;11.47;;
5295;SDS011;2670;42.720;23.336;2024-02-14T06:21:37;16.63;;;11.70;;
5295;SDS011;2670;42.720;23.336;2024-02-14T06:24:05;12.33;;;7.70;;
5295;SDS011;2670;42.720;23.336;2024-02-14T06:26:32;17.00;;;10.37;;
5295;SDS011;2670;42.720;23.336;2024-02-14T06:28:58;18.53;;;12.20;;
5295;SDS011;2670;42.720;23.336;2024-02-14T06:31:25;17.23;;;12.23;;
5295;SDS011;2670;42.720;23.336;2024-02-14T06:33:51;18.50;;;12.93;;
5295;SDS011;2670;42.720;23.336;2024-02-14T06:36:18;17.63;;;10.30;;
5295;SDS011;2670;42.720;23.336;2024-02-14T06:38:44;16.37;;;10.93;;
5295;SDS011;2670;42.720;23.336;2024-02-14T06:41:12;11.80;;;7.80;;
5295;SDS011;2670;42.720;23.336;2024-02-14T06:43:39;15.17;;;10.63;;
5295;SDS011;2670;42.720;23.336;2024-02-14T06:46:05;13.00;;;9.73;;
5295;SDS011;2670;42.720;23.336;2024-02-14T06:48:32;13.83;;;10.10;;
5295;SDS011;2670;42.720;23.336;2024-02-14T06:50:59;15.33;;;9.00;;
5295;SDS011;2670;42.720;23.336;2024-02-14T06:53:25;16.03;;;10.97;;
5295;SDS011;2670;42.720;23.336;2024-02-14T06:55:51;20.00;;;12.90;;
5295;SDS011;2670;42.720;23.336;2024-02-14T06:58:19;14.60;;;9.70;;
5295;SDS011;2670;42.720;23.336;2024-02-14T07:00:46;17.63;;;12.17;;
5295;SDS011;2670;42.720;23.336;2024-02-14T07:03:12;21.03;;;10.73;;
5295;SDS011;2670;42.720;23.336;2024-02-14T07:05:38;19.20;;;11.53;;
5295;SDS011;2670;42.720;23.336;2024-02-14T07:08:06;8.70;;;7.13;;
5295;SDS011;2670;42.720;23.336;2024-02-14T07:10:33;12.57;;;8.20;;
5295;SDS011;2670;42.720;23.336;2024-02-14T07:12:59;16.23;;;9.47;;
5295;SDS011;2670;42.720;23.336;2024-02-14T07:15:27;13.03;;;6.67;;
5295;SDS011;2670;42.720;23.336;2024-02-14T07:17:54;19.47;;;11.87;;
5295;SDS011;2670;42.720;23.336;2024-02-14T07:20:22;13.67;;;9.70;;
5295;SDS011;2670;42.720;23.336;2024-02-14T07:22:51;11.97;;;7.50;;
5295;SDS011;2670;42.720;23.336;2024-02-14T07:25:18;15.00;;;8.30;;
5295;SDS011;2670;42.720;23.336;2024-02-14T07:27:44;9.97;;;5.90;;
5295;SDS011;2670;42.720;23.336;2024-02-14T07:30:13;15.30;;;8.90;;
5295;SDS011;2670;42.720;23.336;2024-02-14T07:32:41;10.90;;;7.80;;
5295;SDS011;2670;42.720;23.336;2024-02-14T07:35:08;13.50;;;9.30;;
5295;SDS011;2670;42.720;23.336;2024-02-14T07:37:35;10.70;;;7.20;;
5295;SDS011;2670;42.720;23.336;2024-02-14T07:40:01;15.33;;;9.87;;
5295;SDS011;2670;42.720;23.336;2024-02-14T07:42:27;13.60;;;8.87;;
5295;SDS011;2670;42.720;23.336;2024-02-14T07:44:54;17.90;;;9.93;;
5295;SDS011;2670;42.720;23.336;2024-02-14T07:47:21;15.93;;;8.57;;
5295;SDS011;2670;42.720;23.336;2024-02-14T07:49:49;16.80;;;8.83;;
5295;SDS011;2670;42.720;23.336;2024-02-14T07:52:18;13.37;;;7.97;;
5295;SDS011;2670;42.720;23.336;2024-02-14T07:54:44;13.50;;;8.60;;
5295;SDS011;2670;42.720;23.336;2024-02-14T07:57:11;8.47;;;5.60;;
5295;SDS011;2670;42.720;23.336;2024-02-14T07:59:37;12.53;;;8.03;;
5295;SDS011;2670;42.720;23.336;2024-02-14T08:02:03;15.43;;;7.50;;
5295;SDS011;2670;42.720;23.336;2024-02-14T08:04:30;10.93;;;7.20;;
5295;SDS011;2670;42.720;23.336;2024-02-14T08:06:58;10.20;;;5.93;;
5295;SDS011;2670;42.720;23.336;2024-02-14T08:09:25;12.03;;;7.97;;
5295;SDS011;2670;42.720;23.336;2024-02-14T08:11:51;12.83;;;8.47;;
5295;SDS011;2670;42.720;23.336;2024-02-14T08:14:18;7.93;;;6.33;;
5295;SDS011;2670;42.720;23.336;2024-02-14T08:16:44;8.17;;;4.97;;
5295;SDS011;2670;42.720;23.336;2024-02-14T08:19:11;12.73;;;8.73;;
5295;SDS011;2670;42.720;23.336;2024-02-14T08:21:37;11.60;;;6.93;;
5295;SDS011;2670;42.720;23.336;2024-02-14T08:24:05;16.73;;;8.77;;
5295;SDS011;2670;42.720;23.336;2024-02-14T08:26:32;10.53;;;7.30;;
5295;SDS011;2670;42.720;23.336;2024-02-14T08:28:58;12.00;;;7.03;;
5295;SDS011;2670;42.720;23.336;2024-02-14T08:31:25;17.30;;;9.40;;
5295;SDS011;2670;42.720;23.336;2024-02-14T08:33:51;10.53;;;6.60;;
5295;SDS011;2670;42.720;23.336;2024-02-14T08:36:18;11.83;;;8.30;;
5295;SDS011;2670;42.720;23.336;2024-02-14T08:38:45;12.80;;;7.60;;
5295;SDS011;2670;42.720;23.336;2024-02-14T08:41:13;10.67;;;7.00;;
5295;SDS011;2670;42.720;23.336;2024-02-14T08:43:39;20.43;;;6.97;;
5295;SDS011;2670;42.720;23.336;2024-02-14T08:46:09;26.50;;;9.27;;
5295;SDS011;2670;42.720;23.336;2024-02-14T08:48:35;10.40;;;7.90;;
5295;SDS011;2670;42.720;23.336;2024-02-14T08:51:06;14.67;;;9.03;;
5295;SDS011;2670;42.720;23.336;2024-02-14T08:53:34;12.20;;;7.37;;
5295;SDS011;2670;42.720;23.336;2024-02-14T08:56:00;12.03;;;8.13;;
5295;SDS011;2670;42.720;23.336;2024-02-14T08:58:28;11.03;;;6.20;;
5295;SDS011;2670;42.720;23.336;2024-02-14T09:00:54;6.20;;;4.53;;
5295;SDS011;2670;42.720;23.336;2024-02-14T09:03:21;11.43;;;7.53;;
5295;SDS011;2670;42.720;23.336;2024-02-14T09:05:47;10.73;;;7.57;;
5295;SDS011;2670;42.720;23.336;2024-02-14T09:08:14;9.87;;;7.10;;
5295;SDS011;2670;42.720;23.336;2024-02-14T09:10:40;12.07;;;8.30;;
5295;SDS011;2670;42.720;23.336;2024-02-14T09:13:07;15.17;;;10.00;;
5295;SDS011;2670;42.720;23.336;2024-02-14T09:15:35;15.20;;;9.37;;
5295;SDS011;2670;42.720;23.336;2024-02-14T09:18:02;12.27;;;8.27;;
5295;SDS011;2670;42.720;23.336;2024-02-14T09:20:28;10.47;;;7.00;;
5295;SDS011;2670;42.720;23.336;2024-02-14T09:22:55;13.20;;;7.60;;
5295;SDS011;2670;42.720;23.336;2024-02-14T09:25:23;12.67;;;9.63;;
5295;SDS011;2670;42.720;23.336;2024-02-14T09:27:50;14.33;;;8.10;;
5295;SDS011;2670;42.720;23.336;2024-02-14T09:30:16;9.67;;;6.30;;
5295;SDS011;2670;42.720;23.336;2024-02-14T09:32:44;16.67;;;7.80;;
5295;SDS011;2670;42.720;23.336;2024-02-14T09:35:12;12.87;;;7.37;;
5295;SDS011;2670;42.720;23.336;2024-02-14T09:37:39;8.43;;;5.87;;
5295;SDS011;2670;42.720;23.336;2024-02-14T09:40:06;14.60;;;7.20;;
5295;SDS011;2670;42.720;23.336;2024-02-14T09:42:36;9.77;;;6.93;;
5295;SDS011;2670;42.720;23.336;2024-02-14T09:45:05;13.73;;;6.47;;
5295;SDS011;2670;42.720;23.336;2024-02-14T09:47:32;14.17;;;8.00;;
5295;SDS011;2670;42.720;23.336;2024-02-14T09:50:00;27.33;;;12.23;;
5295;SDS011;2670;42.720;23.336;2024-02-14T09:52:27;12.00;;;6.77;;
5295;SDS011;2670;42.720;23.336;2024-02-14T09:54:54;12.03;;;6.73;;
5295;SDS011;2670;42.720;23.336;2024-02-14T09:57:21;12.33;;;7.90;;
5295;SDS011;2670;42.720;23.336;2024-02-14T09:59:48;12.57;;;8.77;;
5295;SDS011;2670;42.720;23.336;2024-02-14T10:02:15;15.07;;;7.70;;
5295;SDS011;2670;42.720;23.336;2024-02-14T10:04:42;12.60;;;6.77;;
5295;SDS011;2670;42.720;23.336;2024-02-14T10:07:10;12.97;;;6.80;;
5295;SDS011;2670;42.720;23.336;2024-02-14T10:09:40;8.00;;;5.30;;
5295;SDS011;2670;42.720;23.336;2024-02-14T10:12:07;10.23;;;7.50;;
5295;SDS011;2670;42.720;23.336;2024-02-14T10:14:35;10.37;;;7.40;;
5295;SDS011;2670;42.720;23.336;2024-02-14T10:17:02;10.13;;;7.00;;
5295;SDS011;2670;42.720;23.336;2024-02-14T10:19:29;17.93;;;11.10;;
5295;SDS011;2670;42.720;23.336;2024-02-14T10:21:56;8.43;;;7.10;;
5295;SDS011;2670;42.720;23.336;2024-02-14T10:24:25;16.00;;;8.20;;
5295;SDS011;2670;42.720;23.336;2024-02-14T10:26:52;12.67;;;9.80;;
5295;SDS011;2670;42.720;23.336;2024-02-14T10:29:19;11.53;;;8.30;;
5295;SDS011;2670;42.720;23.336;2024-02-14T10:31:46;12.37;;;7.57;;
5295;SDS011;2670;42.720;23.336;2024-02-14T10:34:13;10.40;;;7.77;;
5295;SDS011;2670;42.720;23.336;2024-02-14T10:36:40;18.43;;;8.10;;
5295;SDS011;2670;42.720;23.336;2024-02-14T10:39:08;12.57;;;7.83;;
5295;SDS011;2670;42.720;23.336;2024-02-14T10:41:37;16.33;;;7.90;;
5295;SDS011;2670;42.720;23.336;2024-02-14T10:44:04;12.97;;;8.53;;
5295;SDS011;2670;42.720;23.336;2024-02-14T10:46:31;16.43;;;6.73;;
5295;SDS011;2670;42.720;23.336;2024-02-14T10:49:00;12.20;;;7.30;;
5295;SDS011;2670;42.720;23.336;2024-02-14T10:51:30;12.50;;;7.37;;
5295;SDS011;2670;42.720;23.336;2024-02-14T10:53:57;13.67;;;8.57;;
5295;SDS011;2670;42.720;23.336;2024-02-14T10:56:24;11.13;;;6.67;;
5295;SDS011;2670;42.720;23.336;2024-02-14T10:58:56;19.60;;;12.10;;
5295;SDS011;2670;42.720;23.336;2024-02-14T11:01:24;24.27;;;10.70;;
5295;SDS011;2670;42.720;23.336;2024-02-14T11:03:52;23.70;;;11.40;;
5295;SDS011;2670;42.720;23.336;2024-02-14T11:06:21;12.00;;;7.80;;
5295;SDS011;2670;42.720;23.336;2024-02-14T11:08:56;28.30;;;12.80;;
5295;SDS011;2670;42.720;23.336;2024-02-14T11:11:24;23.47;;;11.20;;
5295;SDS011;2670;42.720;23.336;2024-02-14T11:13:52;26.83;;;11.90;;
5295;SDS011;2670;42.720;23.336;2024-02-14T11:16:20;17.13;;;9.53;;
5295;SDS011;2670;42.720;23.336;2024-02-14T11:18:49;17.23;;;9.00;;
5295;SDS011;2670;42.720;23.336;2024-02-14T11:21:16;21.83;;;10.63;;
5295;SDS011;2670;42.720;23.336;2024-02-14T11:23:52;18.37;;;9.33;;
5295;SDS011;2670;42.720;23.336;2024-02-14T11:26:18;15.60;;;8.90;;
5295;SDS011;2670;42.720;23.336;2024-02-14T11:28:45;16.50;;;10.00;;
5295;SDS011;2670;42.720;23.336;2024-02-14T11:31:16;16.30;;;8.60;;
5295;SDS011;2670;42.720;23.336;2024-02-14T11:33:44;12.03;;;6.90;;
5295;SDS011;2670;42.720;23.336;2024-02-14T11:36:11;10.10;;;5.87;;
5295;SDS011;2670;42.720;23.336;2024-02-14T11:38:40;13.57;;;8.63;;
5295;SDS011;2670;42.720;23.336;2024-02-14T11:41:06;16.87;;;8.30;;
5295;SDS011;2670;42.720;23.336;2024-02-14T11:43:34;21.20;;;8.07;;
5295;SDS011;2670;42.720;23.336;2024-02-14T11:46:01;12.57;;;7.00;;
5295;SDS011;2670;42.720;23.336;2024-02-14T11:48:29;11.80;;;7.60;;
5295;SDS011;2670;42.720;23.336;2024-02-14T11:50:58;14.30;;;6.90;;
5295;SDS011;2670;42.720;23.336;2024-02-14T11:53:25;6.63;;;4.97;;
5295;SDS011;2670;42.720;23.336;2024-02-14T11:55:53;14.93;;;6.90;;
5295;SDS011;2670;42.720;23.336;2024-02-14T11:58:20;17.30;;;9.47;;
5295;SDS011;2670;42.720;23.336;2024-02-14T12:00:46;14.80;;;7.03;;
5295;SDS011;2670;42.720;23.336;2024-02-14T12:03:15;11.50;;;7.27;;
5295;SDS011;2670;42.720;23.336;2024-02-14T12:05:42;11.10;;;5.87;;
5295;SDS011;2670;42.720;23.336;2024-02-14T12:08:10;12.53;;;5.27;;
5295;SDS011;2670;42.720;23.336;2024-02-14T12:10:37;10.60;;;6.53;;
5295;SDS011;2670;42.720;23.336;2024-02-14T12:13:07;10.77;;;5.50;;
5295;SDS011;2670;42.720;23.336;2024-02-14T12:15:37;14.00;;;7.73;;
5295;SDS011;2670;42.720;23.336;2024-02-14T12:18:04;10.93;;;7.00;;
5295;SDS011;2670;42.720;23.336;2024-02-14T12:21:03;12.67;;;6.40;;
5295;SDS011;2670;42.720;23.336;2024-02-14T12:23:34;14.43;;;7.10;;
5295;SDS011;2670;42.720;23.336;2024-02-14T12:26:01;20.13;;;6.60;;
5295;SDS011;2670;42.720;23.336;2024-02-14T12:28:28;18.20;;;8.87;;
5295;SDS011;2670;42.720;23.336;2024-02-14T12:30:55;12.60;;;6.87;;
5295;SDS011;2670;42.720;23.336;2024-02-14T12:33:22;13.23;;;6.97;;
5295;SDS011;2670;42.720;23.336;2024-02-14T12:35:49;14.80;;;8.33;;
5295;SDS011;2670;42.720;23.336;2024-02-14T12:38:17;13.57;;;7.30;;
5295;SDS011;2670;42.720;23.336;2024-02-14T12:40:45;13.10;;;7.93;;
5295;SDS011;2670;42.720;23.336;2024-02-14T12:43:12;13.00;;;7.10;;
5295;SDS011;2670;42.720;23.336;2024-02-14T12:45:38;15.17;;;8.70;;
5295;SDS011;2670;42.720;23.336;2024-02-14T12:48:05;11.27;;;6.97;;
5295;SDS011;2670;42.720;23.336;2024-02-14T12:50:33;12.83;;;7.80;;
5295;SDS011;2670;42.720;23.336;2024-02-14T12:52:59;10.13;;;6.50;;
5295;SDS011;2670;42.720;23.336;2024-02-14T12:55:26;12.53;;;6.30;;
5295;SDS011;2670;42.720;23.336;2024-02-14T12:57:55;15.83;;;6.33;;
5295;SDS011;2670;42.720;23.336;2024-02-14T13:00:21;9.23;;;5.57;;
5295;SDS011;2670;42.720;23.336;2024-02-14T13:02:48;8.23;;;5.90;;
5295;SDS011;2670;42.720;23.336;2024-02-14T13:05:14;14.63;;;8.30;;
5295;SDS011;2670;42.720;23.336;2024-02-14T13:07:41;10.87;;;6.20;;
5295;SDS011;2670;42.720;23.336;2024-02-14T13:10:08;9.93;;;6.03;;
5295;SDS011;2670;42.720;23.336;2024-02-14T13:12:35;12.97;;;7.53;;
5295;SDS011;2670;42.720;23.336;2024-02-14T13:15:04;11.03;;;6.13;;
5295;SDS011;2670;42.720;23.336;2024-02-14T13:17:30;16.03;;;7.10;;
5295;SDS011;2670;42.720;23.336;2024-02-14T13:19:57;10.33;;;6.37;;
5295;SDS011;2670;42.720;23.336;2024-02-14T13:22:24;23.13;;;11.33;;
5295;SDS011;2670;42.720;23.336;2024-02-14T13:24:51;29.57;;;10.93;;
5295;SDS011;2670;42.720;23.336;2024-02-14T13:27:17;27.93;;;9.20;;
5295;SDS011;2670;42.720;23.336;2024-02-14T13:29:46;30.37;;;14.23;;
5295;SDS011;2670;42.720;23.336;2024-02-14T13:32:14;15.00;;;9.27;;
5295;SDS011;2670;42.720;23.336;2024-02-14T13:34:40;15.50;;;9.00;;
5295;SDS011;2670;42.720;23.336;2024-02-14T13:37:08;12.93;;;8.00;;
5295;SDS011;2670;42.720;23.336;2024-02-14T13:39:35;16.73;;;8.40;;
5295;SDS011;2670;42.720;23.336;2024-02-14T13:42:01;10.97;;;8.17;;
5295;SDS011;2670;42.720;23.336;2024-02-14T13:44:28;13.93;;;6.33;;
5295;SDS011;2670;42.720;23.336;2024-02-14T13:46:54;11.30;;;7.67;;
5295;SDS011;2670;42.720;23.336;2024-02-14T13:49:22;14.90;;;7.10;;
5295;SDS011;2670;42.720;23.336;2024-02-14T13:51:49;13.20;;;8.60;;
5295;SDS011;2670;42.720;23.336;2024-02-14T13:54:16;21.07;;;9.63;;
5295;SDS011;2670;42.720;23.336;2024-02-14T13:56:43;13.70;;;5.03;;
5295;SDS011;2670;42.720;23.336;2024-02-14T13:59:10;9.70;;;6.83;;
5295;SDS011;2670;42.720;23.336;2024-02-14T14:01:37;20.60;;;11.27;;
5295;SDS011;2670;42.720;23.336;2024-02-14T14:04:03;15.47;;;8.40;;
5295;SDS011;2670;42.720;23.336;2024-02-14T14:06:31;16.30;;;8.27;;
5295;SDS011;2670;42.720;23.336;2024-02-14T14:08:58;11.07;;;6.47;;
5295;SDS011;2670;42.720;23.336;2024-02-14T14:11:25;20.30;;;7.17;;
5295;SDS011;2670;42.720;23.336;2024-02-14T14:13:51;11.97;;;7.40;;
5295;SDS011;2670;42.720;23.336;2024-02-14T14:16:18;13.00;;;6.33;;
5295;SDS011;2670;42.720;23.336;2024-02-14T14:18:46;13.53;;;7.30;;
5295;SDS011;2670;42.720;23.336;2024-02-14T14:21:13;14.20;;;8.83;;
5295;SDS011;2670;42.720;23.336;2024-02-14T14:23:41;19.90;;;10.97;;
5295;SDS011;2670;42.720;23.336;2024-02-14T14:26:08;30.80;;;14.80;;
5295;SDS011;2670;42.720;23.336;2024-02-14T14:28:34;24.43;;;9.70;;
5295;SDS011;2670;42.720;23.336;2024-02-14T14:31:01;23.00;;;9.47;;
5295;SDS011;2670;42.720;23.336;2024-02-14T14:33:28;14.63;;;7.67;;
5295;SDS011;2670;42.720;23.336;2024-02-14T14:35:55;11.10;;;7.67;;
5295;SDS011;2670;42.720;23.336;2024-02-14T14:38:21;20.80;;;7.10;;
5295;SDS011;2670;42.720;23.336;2024-02-14T14:40:50;9.57;;;6.63;;
5295;SDS011;2670;42.720;23.336;2024-02-14T14:43:18;9.93;;;5.60;;
5295;SDS011;2670;42.720;23.336;2024-02-14T14:45:46;16.27;;;6.57;;